createdAt,value
2023-02-22T00:00:56.520Z,79.98
2023-02-22T00:03:29.051Z,79.92
2023-02-22T00:05:59.764Z,79.98
2023-02-22T00:08:30.658Z,79.91
2023-02-22T00:11:09.745Z,80.07
2023-02-22T00:13:38.481Z,79.98
2023-02-22T00:16:20.869Z,80.07
2023-02-22T00:18:52.064Z,80.03
2023-02-22T00:21:24.162Z,80.16
2023-02-22T00:23:54.863Z,79.99
2023-02-22T00:26:24.960Z,80.03
2023-02-22T00:29:12.816Z,80.03
2023-02-22T00:31:43.544Z,79.99
2023-02-22T00:34:12.229Z,80.14
2023-02-22T00:36:39.519Z,80.22
2023-02-22T00:39:07.832Z,80.16
2023-02-22T00:41:39.713Z,80.10
2023-02-22T00:44:10.054Z,80.19
2023-02-22T00:46:37.287Z,80.26
2023-02-22T00:49:09.816Z,80.27
2023-02-22T00:51:37.543Z,80.28
2023-02-22T00:54:25.732Z,80.55
2023-02-22T00:56:55.520Z,80.71
2023-02-22T00:59:22.707Z,80.62
2023-02-22T01:01:50.668Z,80.61
2023-02-22T01:04:19.837Z,80.87
2023-02-22T01:06:50.544Z,80.94
2023-02-22T01:09:27.487Z,80.95
2023-02-22T01:11:58.294Z,81.15
2023-02-22T01:14:28.013Z,81.30
2023-02-22T01:16:59.457Z,81.41
2023-02-22T01:19:32.469Z,81.72
2023-02-22T01:22:11.375Z,81.95
2023-02-22T01:24:58.708Z,81.88
2023-02-22T01:27:46.516Z,82.21
2023-02-22T01:30:35.297Z,82.21
2023-02-22T01:33:08.631Z,82.27
2023-02-22T01:35:47.503Z,82.53
2023-02-22T01:38:20.567Z,82.69
2023-02-22T01:40:51.768Z,82.63
2023-02-22T01:43:32.277Z,82.86
2023-02-22T01:46:23.849Z,82.79
2023-02-22T01:49:11.937Z,82.74
2023-02-22T01:51:45.552Z,82.71
2023-02-22T01:54:28.017Z,82.67
2023-02-22T01:57:14.334Z,82.96
2023-02-22T01:59:49.875Z,82.72
2023-02-22T02:02:32.016Z,82.86
2023-02-22T02:05:02.893Z,82.77
2023-02-22T02:07:32.526Z,82.89
2023-02-22T02:10:04.978Z,82.82
2023-02-22T02:12:42.216Z,82.86
2023-02-22T02:15:24.637Z,82.87
2023-02-22T02:17:57.725Z,82.85
2023-02-22T02:20:32.608Z,82.68
2023-02-22T02:23:12.367Z,82.82
2023-02-22T02:26:16.929Z,82.59
2023-02-22T02:29:09.444Z,82.50
2023-02-22T02:32:27.139Z,82.40
2023-02-22T02:35:00.201Z,82.05
2023-02-22T02:37:38.325Z,82.22
2023-02-22T02:40:19.082Z,82.10
2023-02-22T02:42:56.095Z,82.04
2023-02-22T02:45:42.328Z,82.29
2023-02-22T02:48:33.994Z,82.17
2023-02-22T02:51:06.376Z,82.26
2023-02-22T02:53:55.290Z,82.15
2023-02-22T02:56:36.790Z,82.35
2023-02-22T02:59:33.206Z,82.44
2023-02-22T03:02:41.495Z,82.49
2023-02-22T03:05:42.586Z,82.50
2023-02-22T03:08:18.949Z,82.64
2023-02-22T03:10:55.201Z,82.66
2023-02-22T03:13:42.301Z,82.84
2023-02-22T03:16:23.031Z,82.80
2023-02-22T03:19:04.747Z,82.95
2023-02-22T03:21:42.153Z,82.93
2023-02-22T03:24:25.621Z,83.03
2023-02-22T03:27:03.104Z,82.73
2023-02-22T03:29:36.696Z,82.76
2023-02-22T03:32:09.080Z,83.01
2023-02-22T03:34:53.151Z,83.05
2023-02-22T03:37:44.964Z,83.24
2023-02-22T03:40:18.244Z,83.33
2023-02-22T03:42:53.996Z,83.45
2023-02-22T03:45:25.685Z,83.63
2023-02-22T03:47:59.841Z,83.67
2023-02-22T03:50:47.581Z,83.94
2023-02-22T03:53:18.847Z,83.93
2023-02-22T03:55:52.981Z,84.07
2023-02-22T03:58:26.506Z,84.14
2023-02-22T04:00:57.614Z,84.23
2023-02-22T04:03:40.532Z,84.15
2023-02-22T04:10:09.812Z,84.24
2023-02-22T04:12:57.712Z,84.55
2023-02-22T04:15:28.218Z,84.33
2023-02-22T04:18:14.325Z,84.43
2023-02-22T04:20:41.918Z,84.47
2023-02-22T04:23:19.836Z,84.31
2023-02-22T04:25:50.185Z,84.47
2023-02-22T04:28:37.695Z,84.49
2023-02-22T04:31:10.411Z,84.54
2023-02-22T04:33:47.046Z,84.49
2023-02-22T04:36:18.653Z,84.64
2023-02-22T04:38:50.610Z,84.71
2023-02-22T04:41:25.042Z,84.74
2023-02-22T04:44:00.238Z,84.77
2023-02-22T04:46:31.667Z,84.29
2023-02-22T04:49:19.251Z,83.56
2023-02-22T04:51:51.948Z,83.25
2023-02-22T04:54:23.411Z,83.25
2023-02-22T04:56:56.100Z,83.30
2023-02-22T04:59:30.842Z,83.13
2023-02-22T05:02:03.560Z,83.24
2023-02-22T05:04:31.155Z,83.23
2023-02-22T05:07:09.801Z,83.40
2023-02-22T05:09:46.950Z,83.47
2023-02-22T05:12:16.876Z,83.36
2023-02-22T05:14:44.718Z,83.48
2023-02-22T05:17:32.180Z,83.48
2023-02-22T05:20:03.151Z,83.40
2023-02-22T05:22:32.857Z,83.26
2023-02-22T05:25:21.839Z,83.19
2023-02-22T05:27:53.139Z,83.27
2023-02-22T05:30:41.279Z,83.14
2023-02-22T05:33:18.536Z,82.79
2023-02-22T05:35:46.436Z,82.75
2023-02-22T05:38:33.057Z,83.01
2023-02-22T05:41:13.842Z,82.72
2023-02-22T05:44:03.093Z,82.82
2023-02-22T05:46:40.573Z,82.68
2023-02-22T05:49:08.301Z,82.26
2023-02-22T05:51:38.105Z,82.40
2023-02-22T05:54:15.324Z,82.18
2023-02-22T05:56:48.168Z,82.19
2023-02-22T05:59:24.239Z,81.84
2023-02-22T06:02:00.613Z,81.69
2023-02-22T06:04:49.090Z,81.41
2023-02-22T06:07:19.379Z,81.33
2023-02-22T06:09:46.702Z,81.02
2023-02-22T06:12:16.550Z,80.75
2023-02-22T06:14:54.910Z,80.69
2023-02-22T06:17:32.368Z,80.54
2023-02-22T06:20:10.050Z,80.20
2023-02-22T06:22:59.026Z,79.94
2023-02-22T06:25:46.401Z,79.77
2023-02-22T06:28:34.072Z,79.86
2023-02-22T06:31:01.370Z,79.46
2023-02-22T06:33:28.464Z,79.49
2023-02-22T06:35:55.971Z,79.67
2023-02-22T06:38:27.863Z,79.39
2023-02-22T06:40:56.637Z,79.44
2023-02-22T06:43:24.513Z,79.22
2023-02-22T06:45:51.809Z,79.21
2023-02-22T06:48:19.457Z,79.20
2023-02-22T06:51:08.387Z,78.66
2023-02-22T06:53:38.853Z,78.25
2023-02-22T06:56:06.901Z,78.06
2023-02-22T06:58:37.076Z,78.11
2023-02-22T07:01:07.150Z,77.99
2023-02-22T07:03:38.117Z,77.96
2023-02-22T07:06:05.990Z,77.79
2023-02-22T07:08:33.377Z,77.68
2023-02-22T07:11:00.626Z,77.72
2023-02-22T07:13:27.994Z,77.68
2023-02-22T07:15:55.475Z,77.50
2023-02-22T07:18:24.290Z,77.34
2023-02-22T07:20:51.783Z,76.89
2023-02-22T07:23:19.861Z,76.79
2023-02-22T07:26:07.746Z,76.43
2023-02-22T07:28:55.532Z,76.37
2023-02-22T07:31:39.188Z,75.98
2023-02-22T07:34:26.860Z,76.08
2023-02-22T07:37:04.244Z,75.98
2023-02-22T07:39:51.730Z,75.78
2023-02-22T07:42:30.173Z,75.44
2023-02-22T07:44:57.595Z,75.28
2023-02-22T07:47:24.916Z,75.17
2023-02-22T07:50:14.694Z,75.09
2023-02-22T07:53:03.594Z,74.80
2023-02-22T07:55:38.476Z,74.64
2023-02-22T07:58:18.551Z,74.62
2023-02-22T08:01:06.508Z,74.24
2023-02-22T15:01:22.246Z,59.11
2023-02-22T15:03:58.877Z,59.04
2023-02-22T15:06:51.037Z,58.89
2023-02-22T15:09:25.744Z,58.88
2023-02-22T15:12:13.189Z,59.01
2023-02-22T15:14:52.548Z,59.03
2023-02-22T15:17:39.939Z,58.94
2023-02-22T15:20:15.975Z,58.56
2023-02-22T15:22:53.423Z,58.89
2023-02-22T15:25:42.251Z,58.80
2023-02-22T15:28:18.320Z,58.72
2023-02-22T15:30:51.082Z,58.78
2023-02-22T15:33:24.877Z,58.67
2023-02-22T15:35:56.612Z,58.66
2023-02-22T15:38:31.653Z,58.66
2023-02-22T15:41:09.556Z,58.85
2023-02-22T15:43:44.573Z,58.88
2023-02-22T15:46:20.929Z,58.81
2023-02-22T15:49:20.631Z,58.61
2023-02-22T15:51:55.009Z,58.40
2023-02-22T15:54:44.718Z,58.44
2023-02-22T15:57:36.156Z,58.37
2023-02-22T16:00:33.600Z,58.46
2023-02-22T16:03:13.508Z,58.44
2023-02-22T16:06:01.737Z,58.39
2023-02-22T16:08:52.625Z,58.22
2023-02-22T16:11:44.584Z,58.43
2023-02-22T16:14:42.710Z,58.57
2023-02-22T16:17:31.271Z,58.82
2023-02-22T16:20:02.351Z,58.79
2023-02-22T16:22:40.485Z,58.77
2023-02-22T16:25:28.253Z,58.86
2023-02-22T16:27:58.151Z,58.84
2023-02-22T16:30:29.530Z,59.16
2023-02-22T16:33:13.908Z,59.25
2023-02-22T16:35:54.113Z,59.39
2023-02-22T16:38:38.666Z,59.53
2023-02-22T16:41:13.919Z,59.57
2023-02-22T16:44:01.599Z,59.61
2023-02-22T16:46:34.841Z,59.65
2023-02-22T16:49:12.577Z,59.65
2023-02-22T16:52:03.636Z,59.58
2023-02-22T16:54:52.606Z,59.57
2023-02-22T16:57:42.876Z,59.52
2023-02-22T17:00:14.551Z,59.45
2023-02-22T17:03:04.122Z,59.59
2023-02-22T17:05:51.807Z,59.69
2023-02-22T17:08:39.539Z,59.45
2023-02-22T17:11:27.636Z,59.47
2023-02-22T17:14:23.334Z,59.77
2023-02-22T17:17:13.443Z,59.63
2023-02-22T17:19:52.287Z,59.58
2023-02-22T17:22:39.968Z,59.55
2023-02-22T17:25:31.167Z,59.63
2023-02-22T17:28:18.707Z,59.62
2023-02-22T17:31:07.334Z,59.74
2023-02-22T17:33:57.657Z,59.91
2023-02-22T17:36:39.309Z,59.58
2023-02-22T17:39:10.793Z,59.39
2023-02-22T17:41:48.102Z,59.53
2023-02-22T17:44:18.172Z,59.48
2023-02-22T17:46:45.371Z,59.53
2023-02-22T17:49:33.057Z,59.61
2023-02-22T17:52:15.830Z,59.56
2023-02-22T17:54:43.619Z,59.14
2023-02-22T17:57:31.035Z,59.43
2023-02-22T18:00:24.603Z,59.39
2023-02-22T18:03:15.911Z,59.44
2023-02-22T18:06:04.163Z,59.39
2023-02-22T18:08:55.787Z,59.58
2023-02-22T18:11:44.161Z,59.69
2023-02-22T18:14:31.498Z,59.91
2023-02-22T18:16:59.146Z,59.98
2023-02-22T18:19:26.380Z,59.66
2023-02-22T18:22:00.357Z,59.93
2023-02-22T18:24:27.721Z,59.84
2023-02-22T18:27:15.458Z,59.67
2023-02-22T18:29:54.454Z,59.62
2023-02-22T18:32:31.381Z,59.87
2023-02-22T18:35:10.431Z,60.07
2023-02-22T18:37:46.594Z,59.97
2023-02-22T18:40:34.044Z,59.69
2023-02-22T18:43:21.808Z,59.41
2023-02-22T18:46:13.692Z,59.56
2023-02-22T18:48:56.074Z,59.64
2023-02-22T18:51:44.990Z,59.80
2023-02-22T18:54:14.662Z,59.92
2023-02-22T18:57:02.021Z,60.27
2023-02-22T18:59:50.230Z,60.15
2023-02-22T19:02:37.791Z,60.36
2023-02-22T19:05:14.438Z,60.23
2023-02-22T19:08:02.683Z,59.80
2023-02-22T19:10:40.173Z,59.69
2023-02-22T19:13:10.910Z,59.64
2023-02-22T19:15:38.002Z,59.85
2023-02-22T19:18:05.630Z,59.90
2023-02-22T19:20:33.496Z,59.83
2023-02-22T19:23:21.148Z,59.62
2023-02-22T19:26:09.520Z,59.86
2023-02-22T19:28:36.999Z,59.80
2023-02-22T19:31:29.887Z,59.84
2023-02-22T19:34:00.837Z,59.72
2023-02-22T19:36:50.019Z,59.18
2023-02-22T19:39:38.797Z,59.13
2023-02-22T19:42:26.415Z,58.49
2023-02-22T19:45:14.112Z,58.47
2023-02-22T19:48:01.524Z,58.34
2023-02-22T19:50:34.444Z,58.33
2023-02-22T19:53:05.836Z,58.33
2023-02-22T19:55:43.884Z,58.52
2023-02-22T19:58:14.807Z,58.67
2023-02-22T20:00:47.152Z,58.34
2023-02-22T20:03:23.640Z,58.39
2023-02-22T20:06:03.696Z,58.72
2023-02-22T20:08:51.839Z,59.00
2023-02-22T20:11:39.675Z,58.99
2023-02-22T20:14:28.874Z,58.92
2023-02-22T20:17:16.575Z,58.68
2023-02-22T20:20:05.239Z,58.66
2023-02-22T20:22:53.012Z,58.51
2023-02-22T20:25:41.513Z,58.01
2023-02-22T20:28:26.070Z,57.89
2023-02-22T20:31:13.836Z,57.71
2023-02-22T20:34:02.879Z,57.52
2023-02-22T20:36:35.192Z,58.02
2023-02-22T20:39:03.514Z,58.04
2023-02-22T20:41:36.400Z,57.91
2023-02-22T20:44:24.487Z,58.06
2023-02-22T20:46:56.202Z,58.01
2023-02-22T20:49:43.627Z,58.04
2023-02-22T20:52:31.360Z,57.74
2023-02-22T20:55:19.445Z,57.87
2023-02-22T20:58:07.134Z,57.28
2023-02-22T21:00:54.876Z,57.29
2023-02-22T21:03:36.758Z,57.47
2023-02-22T21:06:16.858Z,57.62
2023-02-22T21:08:51.050Z,57.48
2023-02-22T21:11:33.510Z,57.15
2023-02-22T21:14:02.268Z,57.14
2023-02-22T21:16:34.042Z,57.47
2023-02-22T21:19:26.493Z,57.83
2023-02-22T21:22:08.460Z,57.80
2023-02-22T21:24:56.165Z,57.82
2023-02-22T21:27:43.602Z,57.64
2023-02-22T21:30:32.219Z,56.88
2023-02-22T21:33:11.483Z,57.18
2023-02-22T21:35:43.575Z,57.16
2023-02-22T21:38:33.283Z,57.24
2023-02-22T21:41:03.424Z,57.20
2023-02-22T21:43:53.434Z,57.16
2023-02-22T21:46:25.309Z,57.32
2023-02-22T21:49:13.957Z,57.35
2023-02-22T21:52:01.727Z,57.68
2023-02-22T21:54:49.578Z,58.05
2023-02-22T21:57:37.591Z,58.13
2023-02-22T22:00:29.406Z,57.90
2023-02-22T22:03:12.025Z,57.98
2023-02-22T22:05:54.310Z,57.94
2023-02-22T22:08:46.361Z,57.83
2023-02-22T22:11:25.096Z,58.11
2023-02-22T22:13:58.982Z,57.91
2023-02-22T22:16:30.470Z,57.91
2023-02-22T22:19:21.418Z,57.88
2023-02-22T22:22:08.068Z,58.02
2023-02-22T22:24:55.663Z,58.23
2023-02-22T22:27:22.807Z,58.35
2023-02-22T22:29:51.795Z,57.95
2023-02-22T22:32:31.286Z,57.63
2023-02-22T22:35:14.792Z,57.59
2023-02-22T22:38:03.283Z,57.29
2023-02-22T22:40:53.022Z,57.82
2023-02-22T22:43:31.742Z,58.05
2023-02-22T22:46:21.653Z,57.94
2023-02-22T22:49:01.043Z,58.04
2023-02-22T22:51:48.572Z,58.20
2023-02-22T22:54:29.119Z,58.17
2023-02-22T22:57:17.323Z,58.47
2023-02-22T22:59:50.164Z,57.99
2023-02-22T23:02:30.710Z,57.78
2023-02-22T23:05:12.334Z,57.52
2023-02-22T23:07:42.154Z,58.03
2023-02-22T23:10:14.925Z,57.81
2023-02-22T23:12:42.162Z,57.70
2023-02-22T23:15:14.127Z,57.81
2023-02-22T23:17:45.833Z,57.53
2023-02-22T23:20:16.457Z,57.63
2023-02-22T23:22:47.670Z,57.79
2023-02-22T23:25:19.947Z,57.96
2023-02-22T23:27:58.580Z,57.89
2023-02-22T23:30:25.928Z,58.10
2023-02-22T23:32:54.700Z,58.16
2023-02-22T23:35:37.823Z,57.66
2023-02-22T23:38:08.354Z,58.06
2023-02-22T23:40:54.342Z,57.96
2023-02-22T23:43:42.096Z,57.85
2023-02-22T23:46:33.152Z,57.99
2023-02-22T23:49:21.232Z,58.08
2023-02-22T23:52:09.889Z,58.32
2023-02-22T23:54:44.129Z,58.35
2023-02-22T23:57:11.769Z,58.49
